createdAt,value
2022-10-03T00:00:36.426Z,11.81
2022-10-03T00:02:27.001Z,11.78
2022-10-03T00:04:16.116Z,11.73
2022-10-03T00:06:09.664Z,11.74
2022-10-03T00:08:00.917Z,11.73
2022-10-03T00:10:00.036Z,11.68
2022-10-03T00:11:47.470Z,11.62
2022-10-03T00:13:29.647Z,11.50
2022-10-03T00:15:07.999Z,11.42
2022-10-03T00:16:50.155Z,11.33
2022-10-03T00:18:37.339Z,11.31
2022-10-03T00:20:34.217Z,11.14
2022-10-03T00:22:26.415Z,11.23
2022-10-03T00:24:12.246Z,11.23
2022-10-03T00:25:55.941Z,11.27
2022-10-03T00:27:38.640Z,11.30
2022-10-03T00:29:37.919Z,11.33
2022-10-03T00:31:16.696Z,11.35
2022-10-03T00:33:05.574Z,11.44
2022-10-03T00:34:55.670Z,11.44
2022-10-03T00:36:42.614Z,11.40
2022-10-03T00:38:39.304Z,11.35
2022-10-03T00:40:46.611Z,11.30
2022-10-03T00:42:54.917Z,11.32
2022-10-03T00:44:58.582Z,11.41
2022-10-03T00:47:00.015Z,11.48
2022-10-03T00:49:01.848Z,11.53
2022-10-03T00:51:09.723Z,11.59
2022-10-03T00:53:04.424Z,11.68
2022-10-03T00:54:54.423Z,11.71
2022-10-03T00:56:51.005Z,11.63
2022-10-03T00:58:39.295Z,11.60
2022-10-03T01:00:22.831Z,11.65
2022-10-03T01:01:57.379Z,11.65
2022-10-03T01:03:45.204Z,11.74
2022-10-03T01:05:31.739Z,11.79
2022-10-03T01:07:17.915Z,11.87
2022-10-03T01:09:32.162Z,11.89
2022-10-03T01:11:16.390Z,12.02
2022-10-03T01:13:05.256Z,12.04
2022-10-03T01:15:01.139Z,12.11
2022-10-03T01:16:45.098Z,12.14
2022-10-03T01:18:29.457Z,12.18
2022-10-03T01:20:24.209Z,12.12
2022-10-03T01:22:09.822Z,12.11
2022-10-03T01:24:22.704Z,12.09
2022-10-03T01:26:12.942Z,12.11
2022-10-03T01:28:11.807Z,12.15
2022-10-03T01:30:10.546Z,12.16
2022-10-03T01:31:50.488Z,12.18
2022-10-03T01:33:29.165Z,12.25
2022-10-03T01:35:12.968Z,12.29
2022-10-03T01:36:56.200Z,12.34
2022-10-03T01:38:35.906Z,12.35
2022-10-03T01:40:21.308Z,12.36
2022-10-03T01:42:00.846Z,12.38
2022-10-03T01:43:38.387Z,12.43
2022-10-03T01:45:26.363Z,12.46
2022-10-03T01:47:11.143Z,12.50
2022-10-03T01:48:52.477Z,12.51
2022-10-03T01:50:32.747Z,12.53
2022-10-03T01:52:11.832Z,12.57
2022-10-03T01:54:04.374Z,12.57
2022-10-03T01:56:00.365Z,12.60
2022-10-03T01:57:39.636Z,12.67
2022-10-03T01:59:18.938Z,12.65
2022-10-03T02:01:00.443Z,12.62
2022-10-03T02:02:41.602Z,12.65
2022-10-03T02:04:22.746Z,12.64
2022-10-03T02:06:03.359Z,12.67
2022-10-03T02:07:48.398Z,12.67
2022-10-03T02:09:31.274Z,12.64
2022-10-03T02:11:08.489Z,12.66
2022-10-03T02:12:49.489Z,12.55
2022-10-03T02:14:29.826Z,12.74
2022-10-03T02:16:10.874Z,12.74
2022-10-03T02:17:52.545Z,12.75
2022-10-03T02:19:29.810Z,12.74
2022-10-03T02:21:11.416Z,12.72
2022-10-03T02:22:47.297Z,12.68
2022-10-03T02:24:39.782Z,12.63
2022-10-03T02:26:37.605Z,12.58
2022-10-03T02:28:36.239Z,12.49
2022-10-03T02:30:21.247Z,12.46
2022-10-03T02:32:27.456Z,12.40
2022-10-03T02:34:33.137Z,12.42
2022-10-03T02:36:32.179Z,12.32
2022-10-03T02:38:28.115Z,12.34
2022-10-03T02:40:32.995Z,12.39
2022-10-03T02:42:44.469Z,12.41
2022-10-03T02:44:47.467Z,12.44
2022-10-03T02:46:58.676Z,12.43
2022-10-03T02:49:05.202Z,12.45
2022-10-03T02:51:38.234Z,12.45
2022-10-03T02:53:44.766Z,12.45
2022-10-03T02:55:43.497Z,12.46
2022-10-03T02:57:57.323Z,12.44
2022-10-03T02:59:59.970Z,12.48
2022-10-03T03:01:53.807Z,12.44
2022-10-03T03:03:48.503Z,12.39
2022-10-03T03:05:46.480Z,12.38
2022-10-03T03:07:37.260Z,12.40
2022-10-03T03:09:48.399Z,12.40
2022-10-03T03:12:00.090Z,12.39
2022-10-03T03:13:59.430Z,12.39
2022-10-03T03:16:16.110Z,12.42
2022-10-03T03:17:57.622Z,12.46
2022-10-03T03:19:51.306Z,12.50
2022-10-03T03:21:35.862Z,12.48
2022-10-03T03:23:35.305Z,12.41
2022-10-03T03:25:50.288Z,12.41
2022-10-03T03:27:41.856Z,12.39
2022-10-03T03:29:27.078Z,12.37
2022-10-03T03:31:11.143Z,12.36
2022-10-03T03:32:58.052Z,12.32
2022-10-03T03:34:36.041Z,12.29
2022-10-03T03:36:19.603Z,12.28
2022-10-03T03:38:03.782Z,12.29
2022-10-03T03:39:55.680Z,12.27
2022-10-03T03:41:53.332Z,12.26
2022-10-03T03:43:48.739Z,12.21
2022-10-03T03:45:45.836Z,12.16
2022-10-03T03:47:35.442Z,12.06
2022-10-03T03:49:44.383Z,12.00
2022-10-03T03:51:28.344Z,11.95
2022-10-03T03:53:31.248Z,11.90
2022-10-03T03:55:18.353Z,11.91
2022-10-03T03:57:14.360Z,11.90
2022-10-03T03:58:56.155Z,11.92
2022-10-03T04:00:43.332Z,11.93
2022-10-03T04:02:31.893Z,11.91
2022-10-03T04:04:21.434Z,11.88
2022-10-03T04:06:17.596Z,11.88
2022-10-03T04:08:12.193Z,11.89
2022-10-03T04:10:08.381Z,11.91
2022-10-03T04:11:54.901Z,11.88
2022-10-03T04:13:49.093Z,11.85
2022-10-03T04:15:49.392Z,11.79
2022-10-03T04:18:00.153Z,11.76
2022-10-03T04:19:44.866Z,11.65
2022-10-03T04:21:36.393Z,11.58
2022-10-03T04:23:23.186Z,11.57
2022-10-03T04:25:27.599Z,11.56
2022-10-03T04:27:22.308Z,11.58
2022-10-03T04:29:25.291Z,11.52
2022-10-03T04:31:09.038Z,11.63
2022-10-03T04:33:14.023Z,11.66
2022-10-03T04:35:00.388Z,11.66
2022-10-03T04:37:08.440Z,11.66
2022-10-03T04:38:50.544Z,11.64
2022-10-03T04:40:41.763Z,11.64
2022-10-03T04:42:27.225Z,11.63
2022-10-03T04:44:08.865Z,11.67
2022-10-03T04:45:56.358Z,11.73
2022-10-03T04:47:34.487Z,11.81
2022-10-03T04:49:15.571Z,11.87
2022-10-03T04:51:02.261Z,11.94
2022-10-03T04:52:43.090Z,12.03
2022-10-03T04:54:28.564Z,12.14
2022-10-03T04:56:17.776Z,12.28
2022-10-03T04:58:01.452Z,12.42
2022-10-03T04:59:47.619Z,12.69
2022-10-03T05:01:26.811Z,12.87
2022-10-03T05:03:08.150Z,13.03
2022-10-03T05:04:55.825Z,13.12
2022-10-03T05:06:48.687Z,13.16
2022-10-03T05:08:36.489Z,13.16
2022-10-03T05:10:26.576Z,13.17
2022-10-03T05:12:15.526Z,13.17
2022-10-03T05:14:01.995Z,13.19
2022-10-03T05:15:44.256Z,13.25
2022-10-03T05:17:24.318Z,13.25
2022-10-03T05:19:10.712Z,13.33
2022-10-03T05:20:54.358Z,13.44
2022-10-03T05:22:40.563Z,13.47
2022-10-03T05:24:21.037Z,13.45
2022-10-03T05:26:32.347Z,13.39
2022-10-03T05:28:08.079Z,13.32
2022-10-03T05:29:47.499Z,13.30
2022-10-03T05:31:36.482Z,13.23
2022-10-03T05:33:24.663Z,13.19
2022-10-03T05:35:15.207Z,13.28
2022-10-03T05:37:29.808Z,13.25
2022-10-03T05:39:27.598Z,13.24
2022-10-03T05:41:09.792Z,13.24
2022-10-03T05:43:02.526Z,13.26
2022-10-03T05:44:44.173Z,13.26
2022-10-03T05:46:31.500Z,13.31
2022-10-03T05:48:30.024Z,13.36
2022-10-03T05:50:30.915Z,13.42
2022-10-03T05:52:43.754Z,13.43
2022-10-03T05:54:44.031Z,13.50
2022-10-03T05:56:30.255Z,13.56
2022-10-03T05:58:34.946Z,13.58
2022-10-03T06:00:18.637Z,13.60
2022-10-03T06:02:42.405Z,13.65
2022-10-03T06:04:57.135Z,13.75
2022-10-03T06:06:44.609Z,13.82
2022-10-03T06:08:45.165Z,13.83
2022-10-03T06:10:44.413Z,13.89
2022-10-03T06:12:24.024Z,13.88
2022-10-03T06:14:18.978Z,13.96
2022-10-03T06:15:59.809Z,14.03
2022-10-03T06:17:56.480Z,14.18
2022-10-03T06:19:45.610Z,14.22
2022-10-03T06:21:45.009Z,14.25
2022-10-03T06:23:51.902Z,14.36
2022-10-03T06:26:13.687Z,14.44
2022-10-03T06:28:23.977Z,14.51
2022-10-03T06:30:24.183Z,14.55
2022-10-03T06:32:25.803Z,14.53
2022-10-03T06:34:12.819Z,14.55
2022-10-03T06:36:19.328Z,14.57
2022-10-03T06:38:27.881Z,14.62
2022-10-03T06:40:40.226Z,14.67
2022-10-03T06:42:38.758Z,14.75
2022-10-03T06:44:22.138Z,14.73
2022-10-03T06:46:27.943Z,14.80
2022-10-03T06:48:37.313Z,14.89
2022-10-03T06:50:40.629Z,14.94
2022-10-03T06:52:30.360Z,14.98
2022-10-03T06:54:40.275Z,15.05
2022-10-03T06:56:50.050Z,15.13
2022-10-03T06:59:08.638Z,15.20
2022-10-03T07:00:56.314Z,15.21
2022-10-03T07:02:59.832Z,15.18
2022-10-03T07:05:05.221Z,15.15
2022-10-03T07:07:00.090Z,15.22
2022-10-03T07:09:01.945Z,15.25
2022-10-03T07:10:48.660Z,15.31
2022-10-03T07:12:47.547Z,15.23
2022-10-03T07:15:00.139Z,15.30
2022-10-03T07:17:08.922Z,15.35
2022-10-03T07:19:26.404Z,15.32
2022-10-03T07:21:25.321Z,15.35
2022-10-03T07:23:25.738Z,15.36
2022-10-03T07:25:43.949Z,15.36
2022-10-03T07:27:37.914Z,15.38
2022-10-03T07:29:24.952Z,15.43
2022-10-03T07:31:10.207Z,15.49
2022-10-03T07:33:39.032Z,15.57
2022-10-03T07:35:58.341Z,15.68
2022-10-03T07:38:28.163Z,15.77
2022-10-03T07:40:15.222Z,15.83
2022-10-03T07:42:32.326Z,15.79
2022-10-03T07:44:50.234Z,15.81
2022-10-03T07:46:51.883Z,15.62
2022-10-03T07:48:51.609Z,15.75
2022-10-03T07:51:01.406Z,15.72
2022-10-03T07:52:57.749Z,15.66
2022-10-03T07:54:50.458Z,15.57
2022-10-03T07:56:44.962Z,15.42
2022-10-03T07:58:36.066Z,15.35
2022-10-03T08:00:22.886Z,15.26
2022-10-03T08:02:10.035Z,15.14
2022-10-03T08:04:16.965Z,15.05
2022-10-03T08:06:15.872Z,14.99
2022-10-03T08:08:15.753Z,14.95
2022-10-03T08:10:24.497Z,14.90
2022-10-03T08:12:48.075Z,14.83
2022-10-03T08:14:35.561Z,14.83
2022-10-03T08:16:25.245Z,14.82
2022-10-03T08:18:27.795Z,14.81
2022-10-03T08:20:26.481Z,14.79
2022-10-03T08:22:10.569Z,14.75
2022-10-03T08:24:24.546Z,14.68
2022-10-03T08:26:08.410Z,14.56
2022-10-03T08:28:11.512Z,14.46
2022-10-03T08:30:33.613Z,14.39
2022-10-03T08:32:39.274Z,14.35
2022-10-03T08:34:32.828Z,14.35
2022-10-03T08:36:34.042Z,14.34
2022-10-03T08:38:33.880Z,14.34
2022-10-03T08:40:56.624Z,14.34
2022-10-03T08:43:07.566Z,14.33
2022-10-03T08:45:06.757Z,14.34
2022-10-03T08:47:07.890Z,14.35
2022-10-03T08:49:06.995Z,14.35
2022-10-03T08:51:05.835Z,14.33
2022-10-03T08:53:01.117Z,14.38
2022-10-03T08:54:48.917Z,14.49
2022-10-03T08:56:29.091Z,14.55
2022-10-03T08:58:30.668Z,14.62
2022-10-03T09:00:17.886Z,14.73
2022-10-03T09:02:31.967Z,14.82
2022-10-03T09:04:38.548Z,14.96
2022-10-03T09:07:17.585Z,15.07
2022-10-03T09:09:17.674Z,15.11
2022-10-03T09:11:29.120Z,15.15
2022-10-03T09:13:27.762Z,15.19
2022-10-03T09:15:15.618Z,15.27
2022-10-03T09:17:01.653Z,15.35
2022-10-03T09:18:52.382Z,15.40
2022-10-03T09:21:17.973Z,15.44
2022-10-03T09:23:31.286Z,15.52
2022-10-03T09:25:35.164Z,15.58
2022-10-03T09:27:42.553Z,15.59
2022-10-03T09:29:43.414Z,15.55
2022-10-03T09:31:40.920Z,15.51
2022-10-03T09:33:55.443Z,15.48
2022-10-03T09:35:55.585Z,15.48
2022-10-03T09:37:59.385Z,15.48
2022-10-03T09:40:11.198Z,15.51
2022-10-03T09:42:22.244Z,15.52
2022-10-03T09:44:34.506Z,15.57
2022-10-03T09:47:10.477Z,15.61
2022-10-03T09:49:21.883Z,15.62
2022-10-03T09:51:31.961Z,15.63
2022-10-03T09:53:32.548Z,15.65
2022-10-03T09:55:47.234Z,15.61
2022-10-03T09:57:55.506Z,15.66
2022-10-03T09:59:42.161Z,15.62
2022-10-03T10:01:27.250Z,15.58
2022-10-03T10:03:21.945Z,15.52
2022-10-03T10:05:26.792Z,15.48
2022-10-03T10:07:41.657Z,15.51
2022-10-03T10:09:47.780Z,15.47
2022-10-03T10:11:40.145Z,15.46
2022-10-03T10:14:03.195Z,15.48
2022-10-03T10:16:20.561Z,15.58
2022-10-03T10:18:39.284Z,15.66
2022-10-03T10:20:28.573Z,15.67
2022-10-03T10:22:19.573Z,15.73
2022-10-03T10:24:04.583Z,15.88
2022-10-03T10:26:05.102Z,16.03
2022-10-03T10:28:08.204Z,16.17
2022-10-03T10:30:11.905Z,16.32
2022-10-03T10:32:21.538Z,16.43
2022-10-03T10:34:35.708Z,16.63
2022-10-03T10:36:44.538Z,16.88
2022-10-03T10:38:41.117Z,17.04
2022-10-03T10:40:55.022Z,17.27
2022-10-03T10:43:06.902Z,17.47
2022-10-03T10:45:24.387Z,17.57
2022-10-03T10:47:14.554Z,17.64
2022-10-03T10:49:39.703Z,17.52
2022-10-03T10:51:42.828Z,17.50
2022-10-03T10:54:11.870Z,17.42
2022-10-03T10:56:19.103Z,17.27
2022-10-03T10:58:27.917Z,17.27
2022-10-03T11:00:26.470Z,17.16
2022-10-03T11:02:29.486Z,17.29
2022-10-03T11:04:40.577Z,17.39
2022-10-03T11:06:54.390Z,17.52
2022-10-03T11:09:03.118Z,17.63
2022-10-03T11:10:44.956Z,17.69
2022-10-03T11:13:02.067Z,17.81
2022-10-03T11:15:04.395Z,17.69
2022-10-03T11:17:17.657Z,17.91
2022-10-03T11:19:23.896Z,17.91
2022-10-03T11:21:32.303Z,18.00
2022-10-03T11:24:00.584Z,17.92
2022-10-03T11:26:10.492Z,17.82
2022-10-03T11:28:19.078Z,17.75
2022-10-03T11:30:28.624Z,17.72
2022-10-03T11:32:30.698Z,17.79
2022-10-03T11:34:44.108Z,17.88
2022-10-03T11:36:49.251Z,17.89
2022-10-03T11:38:27.233Z,17.91
2022-10-03T11:40:15.274Z,17.90
2022-10-03T11:42:02.203Z,17.96
2022-10-03T11:44:08.249Z,18.01
2022-10-03T11:45:48.161Z,18.01
2022-10-03T11:47:49.295Z,18.09
2022-10-03T11:49:50.707Z,18.19
2022-10-03T11:51:38.570Z,18.26
2022-10-03T11:53:43.370Z,18.33
2022-10-03T11:55:31.646Z,18.27
2022-10-03T11:57:11.143Z,18.21
2022-10-03T11:58:56.558Z,18.27
2022-10-03T12:00:34.481Z,18.38
2022-10-03T12:02:18.420Z,18.49
2022-10-03T12:04:00.709Z,18.63
2022-10-03T12:05:52.804Z,18.65
2022-10-03T12:08:01.050Z,18.53
2022-10-03T12:09:45.914Z,18.47
2022-10-03T12:11:26.681Z,18.39
2022-10-03T12:13:09.778Z,18.29
2022-10-03T12:14:46.867Z,18.27
2022-10-03T12:16:27.869Z,18.21
2022-10-03T12:18:09.175Z,18.25
2022-10-03T12:19:55.244Z,18.31
2022-10-03T12:21:41.433Z,18.46
2022-10-03T12:23:29.221Z,18.42
2022-10-03T12:25:16.822Z,18.62
2022-10-03T12:27:00.049Z,18.83
2022-10-03T12:28:39.972Z,18.90
2022-10-03T12:30:17.644Z,18.96
2022-10-03T12:32:03.653Z,18.83
2022-10-03T12:33:53.037Z,18.81
2022-10-03T12:35:41.424Z,18.69
2022-10-03T12:37:36.968Z,18.69
2022-10-03T12:39:26.010Z,18.64
2022-10-03T12:41:11.907Z,18.62
2022-10-03T12:42:51.006Z,18.51
2022-10-03T12:44:37.249Z,18.51
2022-10-03T12:46:17.486Z,18.53
2022-10-03T12:48:02.744Z,18.53
2022-10-03T12:49:51.392Z,18.44
2022-10-03T12:51:58.230Z,18.44
2022-10-03T12:53:38.973Z,18.37
2022-10-03T12:55:26.889Z,18.41
2022-10-03T12:57:16.188Z,18.55
2022-10-03T12:59:24.764Z,18.74
2022-10-03T13:01:10.270Z,18.90
2022-10-03T13:02:48.329Z,19.08
2022-10-03T13:04:35.476Z,19.17
2022-10-03T13:07:02.483Z,19.27
2022-10-03T13:08:45.729Z,19.35
2022-10-03T13:10:29.566Z,19.30
2022-10-03T13:12:11.176Z,19.38
2022-10-03T13:14:07.587Z,19.39
2022-10-03T13:15:49.201Z,19.37
2022-10-03T13:17:29.363Z,19.41
2022-10-03T13:19:06.804Z,19.34
2022-10-03T13:20:43.968Z,19.34
2022-10-03T13:22:33.208Z,19.41
2022-10-03T13:24:10.852Z,19.32
2022-10-03T13:25:47.111Z,19.27
2022-10-03T13:27:33.467Z,19.19
2022-10-03T13:29:23.881Z,19.05
2022-10-03T13:31:03.577Z,18.92
2022-10-03T13:32:42.532Z,18.84
2022-10-03T13:34:20.608Z,18.79
2022-10-03T13:36:02.770Z,18.74
2022-10-03T13:37:50.510Z,18.65
2022-10-03T13:39:27.052Z,18.60
2022-10-03T13:41:10.974Z,18.55
2022-10-03T13:42:53.867Z,18.52
2022-10-03T13:44:37.687Z,18.54
2022-10-03T13:46:18.537Z,18.49
2022-10-03T13:47:55.986Z,18.44
2022-10-03T13:49:34.603Z,18.31
2022-10-03T13:51:22.186Z,18.41
2022-10-03T13:53:01.418Z,18.39
2022-10-03T13:55:03.803Z,18.42
2022-10-03T13:56:46.613Z,18.49
2022-10-03T13:58:33.046Z,18.51
2022-10-03T14:00:12.238Z,18.61
2022-10-03T14:01:57.101Z,18.82
2022-10-03T14:03:45.736Z,18.98
2022-10-03T14:05:52.517Z,19.17
2022-10-03T14:07:36.908Z,19.37
2022-10-03T14:09:28.943Z,19.55
2022-10-03T14:11:23.559Z,19.66
2022-10-03T14:13:16.987Z,19.74
2022-10-03T14:15:07.347Z,19.88
2022-10-03T14:16:44.882Z,19.94
2022-10-03T14:18:38.488Z,19.98
2022-10-03T14:20:24.596Z,19.94
2022-10-03T14:22:14.047Z,19.85
2022-10-03T14:23:52.491Z,19.78
2022-10-03T14:25:29.882Z,19.68
2022-10-03T14:27:11.580Z,19.63
2022-10-03T14:28:51.157Z,19.52
2022-10-03T14:30:26.464Z,19.44
2022-10-03T14:32:08.941Z,19.41
2022-10-03T14:33:59.941Z,19.33
2022-10-03T14:35:39.268Z,19.21
2022-10-03T14:37:25.945Z,19.19
2022-10-03T14:39:22.159Z,19.16
2022-10-03T14:41:05.459Z,19.15
2022-10-03T14:42:53.951Z,19.09
2022-10-03T14:44:37.266Z,19.03
2022-10-03T14:46:11.875Z,19.02
2022-10-03T14:47:50.713Z,18.96
2022-10-03T14:51:27.542Z,19.00
2022-10-03T14:53:06.216Z,19.00
2022-10-03T14:54:43.028Z,19.04
2022-10-03T14:56:20.925Z,18.94
2022-10-03T14:58:10.224Z,18.88
2022-10-03T14:59:52.091Z,18.79
2022-10-03T15:01:28.701Z,18.74
2022-10-03T15:03:20.859Z,18.74
2022-10-03T15:04:59.593Z,18.81
2022-10-03T15:06:54.108Z,18.79
2022-10-03T15:08:35.728Z,18.75
2022-10-03T15:10:14.352Z,18.70
2022-10-03T15:11:52.661Z,18.65
2022-10-03T15:13:29.117Z,18.56
2022-10-03T15:15:05.999Z,18.67
2022-10-03T15:16:46.184Z,18.97
2022-10-03T15:18:23.220Z,19.33
2022-10-03T15:20:00.425Z,19.37
2022-10-03T15:21:34.217Z,19.28
2022-10-03T15:23:11.345Z,19.17
2022-10-03T15:24:45.001Z,18.99
2022-10-03T15:26:24.927Z,18.81
2022-10-03T15:28:02.990Z,18.72
2022-10-03T15:29:39.657Z,18.60
2022-10-03T15:31:18.133Z,18.55
2022-10-03T15:32:53.561Z,18.49
2022-10-03T15:34:32.465Z,18.43
2022-10-03T15:36:14.775Z,18.42
2022-10-03T15:37:48.732Z,18.39
2022-10-03T15:39:27.886Z,18.32
2022-10-03T15:41:10.688Z,18.24
2022-10-03T15:42:52.731Z,18.19
2022-10-03T15:44:33.922Z,18.17
2022-10-03T15:46:15.730Z,18.14
2022-10-03T15:47:51.207Z,18.09
2022-10-03T15:49:27.908Z,18.04
2022-10-03T15:51:02.924Z,17.94
2022-10-03T15:52:41.799Z,17.84
2022-10-03T15:54:21.970Z,17.85
2022-10-03T15:56:01.795Z,17.81
2022-10-03T15:57:41.800Z,17.74
2022-10-03T15:59:23.249Z,17.65
2022-10-03T16:01:06.836Z,17.60
2022-10-03T16:02:50.001Z,17.51
2022-10-03T16:04:26.343Z,17.46
2022-10-03T16:06:08.975Z,17.41
2022-10-03T16:07:53.434Z,17.36
2022-10-03T16:09:31.393Z,17.32
2022-10-03T16:11:10.258Z,17.30
2022-10-03T16:12:56.167Z,17.21
2022-10-03T16:14:36.055Z,17.17
2022-10-03T16:16:21.185Z,17.13
2022-10-03T16:17:58.553Z,17.08
2022-10-03T16:19:39.531Z,17.05
2022-10-03T16:21:16.378Z,16.99
2022-10-03T16:22:54.302Z,16.94
2022-10-03T16:24:35.269Z,16.87
2022-10-03T16:26:15.030Z,16.83
2022-10-03T16:27:56.229Z,16.77
2022-10-03T16:29:33.819Z,16.71
2022-10-03T16:31:14.232Z,16.65
2022-10-03T16:32:54.276Z,16.60
2022-10-03T16:34:31.276Z,16.58
2022-10-03T16:36:07.027Z,16.53
2022-10-03T16:37:42.499Z,16.49
2022-10-03T16:39:21.797Z,16.44
2022-10-03T16:40:58.995Z,16.39
2022-10-03T16:42:42.467Z,16.38
2022-10-03T16:44:21.866Z,16.33
2022-10-03T16:45:56.678Z,16.26
2022-10-03T16:47:35.796Z,16.13
2022-10-03T16:49:30.366Z,16.16
2022-10-03T16:51:04.807Z,16.13
2022-10-03T16:52:40.569Z,16.10
2022-10-03T16:54:16.007Z,16.04
2022-10-03T16:55:59.242Z,16.01
2022-10-03T16:57:43.340Z,16.00
2022-10-03T16:59:20.628Z,15.98
2022-10-03T17:01:25.389Z,15.96
2022-10-03T17:02:55.887Z,15.94
2022-10-03T17:04:34.130Z,15.91
2022-10-03T17:06:15.973Z,15.86
2022-10-03T17:07:52.589Z,15.83
2022-10-03T17:09:34.763Z,15.81
2022-10-03T17:11:10.167Z,15.79
2022-10-03T17:12:46.595Z,15.77
2022-10-03T17:14:22.319Z,15.75
2022-10-03T17:16:03.397Z,15.71
2022-10-03T17:17:46.755Z,15.71
2022-10-03T17:19:28.293Z,15.71
2022-10-03T17:21:10.816Z,15.69
2022-10-03T17:22:48.192Z,15.70
2022-10-03T17:24:31.825Z,15.77
2022-10-03T17:26:11.494Z,15.85
2022-10-03T17:27:48.196Z,15.88
2022-10-03T17:29:25.298Z,15.86
2022-10-03T17:31:04.204Z,15.81
2022-10-03T17:32:40.828Z,15.78
2022-10-03T17:34:18.975Z,15.76
2022-10-03T17:36:04.933Z,15.78
2022-10-03T17:38:19.557Z,15.76
2022-10-03T17:39:59.384Z,15.74
2022-10-03T17:41:41.391Z,15.74
2022-10-03T17:43:23.431Z,15.75
2022-10-03T17:45:06.258Z,15.76
2022-10-03T17:46:43.536Z,15.77
2022-10-03T17:48:21.999Z,15.72
2022-10-03T17:50:02.933Z,15.70
2022-10-03T17:51:42.059Z,15.71
2022-10-03T17:53:21.635Z,15.73
2022-10-03T17:54:58.650Z,15.64
2022-10-03T17:56:36.174Z,15.59
2022-10-03T17:58:17.237Z,15.61
2022-10-03T17:59:58.753Z,15.61
2022-10-03T18:01:38.641Z,15.59
2022-10-03T18:03:17.709Z,15.59
2022-10-03T18:04:58.890Z,15.57
2022-10-03T18:06:44.801Z,15.67
2022-10-03T18:08:23.794Z,15.69
2022-10-03T18:09:57.635Z,15.77
2022-10-03T18:11:34.942Z,15.76
2022-10-03T18:13:18.204Z,15.75
2022-10-03T18:15:22.743Z,15.73
2022-10-03T18:17:04.893Z,15.66
2022-10-03T18:18:57.914Z,15.65
2022-10-03T18:20:45.628Z,15.64
2022-10-03T18:22:23.617Z,15.69
2022-10-03T18:24:16.854Z,15.73
2022-10-03T18:26:20.738Z,15.73
2022-10-03T18:28:13.740Z,15.74
2022-10-03T18:29:52.946Z,15.72
2022-10-03T18:31:27.678Z,15.69
2022-10-03T18:33:01.535Z,15.65
2022-10-03T18:34:39.378Z,15.63
2022-10-03T18:36:20.250Z,15.60
2022-10-03T18:38:04.337Z,15.61
2022-10-03T18:39:40.007Z,15.60
2022-10-03T18:41:17.193Z,15.59
2022-10-03T18:42:51.005Z,15.60
2022-10-03T18:44:28.364Z,15.59
2022-10-03T18:46:30.009Z,15.59
2022-10-03T18:48:11.987Z,15.55
2022-10-03T18:49:54.044Z,15.56
2022-10-03T18:51:33.588Z,15.57
2022-10-03T18:53:19.469Z,15.54
2022-10-03T18:54:59.470Z,15.50
2022-10-03T18:56:33.626Z,15.40
2022-10-03T18:58:18.505Z,15.48
2022-10-03T19:00:01.789Z,15.47
2022-10-03T19:01:45.345Z,15.47
2022-10-03T19:03:23.771Z,15.49
2022-10-03T19:05:03.505Z,15.46
2022-10-03T19:06:39.276Z,15.46
2022-10-03T19:08:21.358Z,15.37
2022-10-03T19:10:23.080Z,15.44
2022-10-03T19:12:07.669Z,15.41
2022-10-03T19:13:53.151Z,15.41
2022-10-03T19:15:44.411Z,15.41
2022-10-03T19:17:33.231Z,15.40
2022-10-03T19:19:12.451Z,15.38
2022-10-03T19:20:48.467Z,15.36
2022-10-03T19:22:28.495Z,15.37
2022-10-03T19:24:11.879Z,15.37
2022-10-03T19:25:49.624Z,15.37
2022-10-03T19:27:26.698Z,15.37
2022-10-03T19:29:04.674Z,15.37
2022-10-03T19:30:43.069Z,15.33
2022-10-03T19:32:23.626Z,15.33
2022-10-03T19:34:01.382Z,15.37
2022-10-03T19:35:40.461Z,15.38
2022-10-03T19:37:18.495Z,15.37
2022-10-03T19:38:55.013Z,15.41
2022-10-03T19:40:54.286Z,15.45
2022-10-03T19:42:39.225Z,15.43
2022-10-03T19:44:18.445Z,15.42
2022-10-03T19:46:03.082Z,15.47
2022-10-03T19:47:40.733Z,15.47
2022-10-03T19:49:26.291Z,15.50
2022-10-03T19:51:10.402Z,15.48
2022-10-03T19:52:43.834Z,15.49
2022-10-03T19:54:31.610Z,15.48
2022-10-03T19:56:05.871Z,15.50
2022-10-03T19:57:45.319Z,15.51
2022-10-03T19:59:19.668Z,15.54
2022-10-03T20:00:55.997Z,15.54
2022-10-03T20:02:30.506Z,15.58
2022-10-03T20:04:03.729Z,15.57
2022-10-03T20:05:44.470Z,15.52
2022-10-03T20:07:20.844Z,15.55
2022-10-03T20:08:57.376Z,15.55
2022-10-03T20:10:51.810Z,15.57
2022-10-03T20:12:29.414Z,15.55
2022-10-03T20:14:03.568Z,15.53
2022-10-03T20:15:44.055Z,15.50
2022-10-03T20:17:22.658Z,15.51
2022-10-03T20:19:05.222Z,15.50
2022-10-03T20:20:38.922Z,15.51
2022-10-03T20:22:15.141Z,15.47
2022-10-03T20:23:49.467Z,15.43
2022-10-03T20:25:31.601Z,15.36
2022-10-03T20:27:19.742Z,15.35
2022-10-03T20:29:06.746Z,15.33
2022-10-03T20:30:46.028Z,15.33
2022-10-03T20:32:21.492Z,15.35
2022-10-03T20:33:56.104Z,15.37
2022-10-03T20:35:35.838Z,15.36
2022-10-03T20:37:27.684Z,15.34
2022-10-03T20:39:13.144Z,15.33
2022-10-03T20:40:52.048Z,15.32
2022-10-03T20:42:31.584Z,15.29
2022-10-03T20:44:13.815Z,15.21
2022-10-03T20:46:00.206Z,15.18
2022-10-03T20:47:56.165Z,15.13
2022-10-03T20:49:33.208Z,15.12
2022-10-03T20:51:06.668Z,15.11
2022-10-03T20:52:40.117Z,15.10
2022-10-03T20:54:19.646Z,15.04
2022-10-03T20:55:57.468Z,15.03
2022-10-03T20:57:34.320Z,15.00
2022-10-03T20:59:11.735Z,14.95
2022-10-03T21:00:49.556Z,14.94
2022-10-03T21:02:31.485Z,14.96
2022-10-03T21:04:16.130Z,14.93
2022-10-03T21:05:53.036Z,14.93
2022-10-03T21:07:33.975Z,14.90
2022-10-03T21:09:07.995Z,14.90
2022-10-03T21:10:45.302Z,14.88
2022-10-03T21:12:21.476Z,14.85
2022-10-03T21:13:58.929Z,14.81
2022-10-03T21:15:47.677Z,14.77
2022-10-03T21:17:21.940Z,14.79
2022-10-03T21:19:00.539Z,14.74
2022-10-03T21:20:38.469Z,14.78
2022-10-03T21:22:18.526Z,14.78
2022-10-03T21:23:58.997Z,14.70
2022-10-03T21:25:33.483Z,14.73
2022-10-03T21:27:08.856Z,14.70
2022-10-03T21:28:42.175Z,14.70
2022-10-03T21:30:18.992Z,14.65
2022-10-03T21:32:11.600Z,14.64
2022-10-03T21:33:53.434Z,14.63
2022-10-03T21:35:30.582Z,14.61
2022-10-03T21:37:14.188Z,14.61
2022-10-03T21:38:51.476Z,14.58
2022-10-03T21:40:39.106Z,14.57
2022-10-03T21:42:23.011Z,14.56
2022-10-03T21:43:59.473Z,14.60
2022-10-03T21:45:42.759Z,14.63
2022-10-03T21:47:26.759Z,14.62
2022-10-03T21:49:15.564Z,14.62
2022-10-03T21:50:55.080Z,14.66
2022-10-03T21:52:51.552Z,14.65
2022-10-03T21:54:37.143Z,14.69
2022-10-03T21:56:32.196Z,14.71
2022-10-03T21:58:19.857Z,14.73
2022-10-03T22:00:10.985Z,14.71
2022-10-03T22:01:50.791Z,14.70
2022-10-03T22:03:27.903Z,14.70
2022-10-03T22:05:09.018Z,14.67
2022-10-03T22:06:50.077Z,14.67
2022-10-03T22:08:27.243Z,14.67
2022-10-03T22:10:00.485Z,14.65
2022-10-03T22:11:43.311Z,14.66
2022-10-03T22:13:20.250Z,14.68
2022-10-03T22:15:00.148Z,14.69
2022-10-03T22:16:41.320Z,14.71
2022-10-03T22:18:17.843Z,14.70
2022-10-03T22:19:54.048Z,14.71
2022-10-03T22:21:30.512Z,14.71
2022-10-03T22:23:22.568Z,14.71
2022-10-03T22:25:09.364Z,14.73
2022-10-03T22:26:51.223Z,14.75
2022-10-03T22:28:39.294Z,14.74
2022-10-03T22:30:16.355Z,14.71
2022-10-03T22:31:56.915Z,14.73
2022-10-03T22:33:43.112Z,14.75
2022-10-03T22:35:33.272Z,14.72
2022-10-03T22:37:07.039Z,14.67
2022-10-03T22:38:41.018Z,14.69
2022-10-03T22:40:15.763Z,14.68
2022-10-03T22:41:53.503Z,14.66
2022-10-03T22:43:29.189Z,14.62
2022-10-03T22:45:04.580Z,14.61
2022-10-03T22:46:40.877Z,14.64
2022-10-03T22:48:18.710Z,14.64
2022-10-03T22:49:59.231Z,14.65
2022-10-03T22:51:33.986Z,14.68
2022-10-03T22:53:09.403Z,14.68
2022-10-03T22:54:44.869Z,14.61
2022-10-03T22:56:42.454Z,14.57
2022-10-03T22:58:16.599Z,14.59
2022-10-03T22:59:55.244Z,14.56
2022-10-03T23:01:29.444Z,14.57
2022-10-03T23:03:08.376Z,14.57
2022-10-03T23:04:49.123Z,14.53
2022-10-03T23:06:41.193Z,14.52
2022-10-03T23:08:24.715Z,14.54
2022-10-03T23:10:08.628Z,14.44
2022-10-03T23:11:47.046Z,14.44
2022-10-03T23:13:36.730Z,14.53
2022-10-03T23:15:15.616Z,14.53
2022-10-03T23:16:55.465Z,14.56
2022-10-03T23:18:45.324Z,14.57
2022-10-03T23:20:29.891Z,14.56
2022-10-03T23:22:03.510Z,14.58
2022-10-03T23:23:49.721Z,14.60
2022-10-03T23:25:26.690Z,14.59